Time;durP1;ratioP1;P1;durP2;ratioP2;P2;SDS_P1;SDS_P2;PMS_P1;PMS_P2;Temp;Humidity;BMP_temperature;BMP_pressure;BME280_temperature;BME280_humidity;BME280_pressure;Samples;Min_cycle;Max_cycle;Signal;HPM_P1;HPM_P2
2022/09/29 03:00:14;;;;;;;1.60;0.90;;;19.60;46.60;;;;;;6049414;23;46069;-61
2022/09/29 03:02:40;;;;;;;0.80;0.50;;;19.60;46.60;;;;;;4900410;28;45335;-60
2022/09/29 03:05:11;;;;;;;0.82;0.60;;;19.50;46.60;;;;;;4905487;28;45310;-60
2022/09/29 03:07:37;;;;;;;1.50;0.70;;;19.50;46.60;;;;;;4881134;28;47521;-60
2022/09/29 03:10:03;;;;;;;1.15;0.80;;;19.50;46.60;;;;;;4914921;28;45488;-60
2022/09/29 03:12:29;;;;;;;0.93;0.60;;;19.50;46.60;;;;;;4910126;28;45034;-61
2022/09/29 03:14:55;;;;;;;0.80;0.80;;;19.50;46.60;;;;;;4915073;28;45613;-60
2022/09/29 03:17:20;;;;;;;0.85;0.60;;;19.50;46.70;;;;;;4916648;28;45882;-59
2022/09/29 03:19:46;;;;;;;0.68;0.60;;;19.50;46.60;;;;;;4927254;28;45272;-61
2022/09/29 03:22:12;;;;;;;0.60;0.50;;;19.50;46.70;;;;;;4934228;28;45324;-59
2022/09/29 03:24:37;;;;;;;0.50;0.50;;;19.50;46.60;;;;;;4919164;28;45422;-60
2022/09/29 03:27:03;;;;;;;1.23;0.70;;;19.50;46.60;;;;;;4916907;28;45645;-60
2022/09/29 03:29:29;;;;;;;1.35;0.77;;;19.50;46.60;;;;;;4933186;28;45309;-59
2022/09/29 03:31:54;;;;;;;0.77;0.73;;;19.50;46.60;;;;;;4929842;28;45376;-59
2022/09/29 03:34:20;;;;;;;0.50;0.50;;;19.50;46.60;;;;;;4933706;28;44971;-60
2022/09/29 03:36:45;;;;;;;0.80;0.45;;;19.50;46.60;;;;;;4929139;28;45553;-59
2022/09/29 03:39:11;;;;;;;0.93;0.70;;;19.50;46.60;;;;;;4934346;28;45680;-60
2022/09/29 03:41:36;;;;;;;0.85;0.70;;;19.50;46.60;;;;;;4933250;28;45170;-60
2022/09/29 03:44:02;;;;;;;0.95;0.60;;;19.50;46.60;;;;;;4933828;28;45402;-60
2022/09/29 03:46:27;;;;;;;0.93;0.50;;;19.50;46.70;;;;;;4916122;28;46143;-60
2022/09/29 03:48:53;;;;;;;1.08;0.70;;;19.50;46.60;;;;;;4931840;28;45279;-61
2022/09/29 03:51:19;;;;;;;0.60;0.60;;;19.40;46.60;;;;;;4928008;28;45636;-60
2022/09/29 03:53:44;;;;;;;1.05;0.60;;;19.40;46.60;;;;;;4902331;28;44922;-61
2022/09/29 03:56:10;;;;;;;0.82;0.63;;;19.40;46.60;;;;;;4929883;28;46893;-60
2022/09/29 03:58:35;;;;;;;0.75;0.70;;;19.40;46.60;;;;;;4914019;28;45315;-60
2022/09/29 04:01:01;;;;;;;0.68;0.50;;;19.40;46.60;;;;;;4923958;28;45356;-60
2022/09/29 04:03:27;;;;;;;0.70;0.70;;;19.40;46.60;;;;;;4913070;28;45466;-60
2022/09/29 04:05:53;;;;;;;0.63;0.60;;;19.40;46.60;;;;;;4932653;28;46179;-59
2022/09/29 04:08:18;;;;;;;1.65;0.70;;;19.40;46.60;;;;;;4930690;28;45397;-60
2022/09/29 04:10:45;;;;;;;0.63;0.55;;;19.40;46.60;;;;;;4931024;28;45289;-61
2022/09/29 04:13:11;;;;;;;0.65;0.63;;;19.40;46.60;;;;;;4928847;28;46041;-59
2022/09/29 04:15:36;;;;;;;0.77;0.57;;;19.40;46.60;;;;;;4926168;28;46691;-59
2022/09/29 04:18:02;;;;;;;0.88;0.55;;;19.40;46.60;;;;;;4932242;28;45183;-60
2022/09/29 04:20:28;;;;;;;0.82;0.60;;;19.40;46.70;;;;;;4911189;28;45604;-60
2022/09/29 04:22:53;;;;;;;0.63;0.63;;;19.40;46.70;;;;;;4927894;28;45929;-59
2022/09/29 04:25:19;;;;;;;1.35;0.70;;;19.40;46.60;;;;;;4929879;28;46140;-60
2022/09/29 04:27:44;;;;;;;1.05;0.40;;;19.30;46.60;;;;;;4930123;28;45230;-59
2022/09/29 04:30:10;;;;;;;0.57;0.40;;;19.30;46.60;;;;;;4931140;28;44895;-59
2022/09/29 04:32:36;;;;;;;0.82;0.47;;;19.30;46.70;;;;;;4898222;28;45467;-60
2022/09/29 04:35:02;;;;;;;0.88;0.70;;;19.30;46.60;;;;;;4930343;28;45623;-60
2022/09/29 04:37:27;;;;;;;0.73;0.60;;;19.30;46.60;;;;;;4916284;28;45567;-59
2022/09/29 04:39:53;;;;;;;0.73;0.63;;;19.30;46.60;;;;;;4907494;28;44839;-60
2022/09/29 04:42:19;;;;;;;1.02;0.57;;;19.30;46.60;;;;;;4912107;28;44846;-58
2022/09/29 04:44:45;;;;;;;0.65;0.60;;;19.30;46.60;;;;;;4927830;28;46491;-59
2022/09/29 04:47:10;;;;;;;0.68;0.60;;;19.30;46.60;;;;;;4898144;28;45931;-60
2022/09/29 04:49:36;;;;;;;0.95;0.60;;;19.30;46.60;;;;;;4915193;28;45582;-61
2022/09/29 04:52:02;;;;;;;;;;;19.30;46.60;;;;;;4896420;28;45437;-65
2022/09/29 04:54:33;;;;;;;1.05;0.77;;;19.30;46.80;;;;;;4933694;28;46599;-63
2022/09/29 04:57:00;;;;;;;1.40;0.65;;;19.40;46.70;;;;;;4904709;28;45544;-62
2022/09/29 04:59:26;;;;;;;0.68;0.50;;;19.40;46.60;;;;;;4899865;28;45380;-63
2022/09/29 05:01:51;;;;;;;0.63;0.50;;;19.40;46.50;;;;;;4892950;28;45892;-62
2022/09/29 05:04:17;;;;;;;0.40;0.40;;;19.40;46.50;;;;;;4928994;28;45225;-61
2022/09/29 05:06:42;;;;;;;1.15;0.70;;;19.50;46.50;;;;;;4933382;28;45252;-62
2022/09/29 05:09:08;;;;;;;1.05;0.57;;;19.50;46.50;;;;;;4918554;28;45581;-63
2022/09/29 05:11:34;;;;;;;0.95;0.55;;;19.50;46.40;;;;;;4929325;28;45289;-62
2022/09/29 05:13:59;;;;;;;0.68;0.63;;;19.50;46.40;;;;;;4899298;28;45375;-63
2022/09/29 05:16:25;;;;;;;1.05;0.73;;;19.60;46.50;;;;;;4922528;28;45262;-63
2022/09/29 05:18:51;;;;;;;1.20;0.70;;;19.60;46.40;;;;;;4916952;28;45160;-63
2022/09/29 05:21:16;;;;;;;0.70;0.68;;;19.60;46.40;;;;;;4931853;28;45130;-63
2022/09/29 05:23:42;;;;;;;1.10;0.70;;;19.60;46.40;;;;;;4884899;28;45243;-64
2022/09/29 05:26:08;;;;;;;1.25;0.57;;;19.60;46.40;;;;;;4929601;28;45489;-62
2022/09/29 05:28:34;;;;;;;0.55;0.52;;;19.60;46.40;;;;;;4912669;28;45343;-62
2022/09/29 05:31:05;;;;;;;0.77;0.68;;;19.60;46.30;;;;;;4927228;28;45143;-62
2022/09/29 05:33:30;;;;;;;0.70;0.60;;;19.60;46.30;;;;;;4912684;28;45664;-62
2022/09/29 05:35:56;;;;;;;0.82;0.77;;;19.60;46.30;;;;;;4899717;28;45441;-62
2022/09/29 05:38:22;;;;;;;1.20;0.80;;;19.60;46.40;;;;;;4915890;28;45090;-62
2022/09/29 05:40:49;;;;;;;0.88;0.75;;;19.60;46.40;;;;;;4916955;28;45173;-62
2022/09/29 05:43:14;;;;;;;0.98;0.70;;;19.60;46.30;;;;;;4913055;28;46216;-62
2022/09/29 05:45:41;;;;;;;1.40;0.57;;;19.60;46.30;;;;;;4915066;28;44668;-62
2022/09/29 05:48:07;;;;;;;1.90;0.80;;;19.60;46.30;;;;;;4932590;28;45681;-62
2022/09/29 05:50:40;;;;;;;1.50;0.77;;;19.60;46.30;;;;;;4919471;28;45571;-62
2022/09/29 05:53:08;;;;;;;0.50;0.50;;;19.60;46.30;;;;;;4915202;28;46437;-62
2022/09/29 05:55:37;;;;;;;1.42;0.70;;;19.60;46.30;;;;;;4930309;28;45314;-61
2022/09/29 05:58:04;;;;;;;0.63;0.60;;;19.60;46.30;;;;;;4909027;28;45514;-62
2022/09/29 06:00:30;;;;;;;1.08;0.68;;;19.60;46.20;;;;;;4928862;28;45522;-62
2022/09/29 06:02:58;;;;;;;0.68;0.57;;;19.60;46.20;;;;;;4930232;28;45511;-62
2022/09/29 06:05:24;;;;;;;0.77;0.52;;;19.60;46.20;;;;;;4927704;28;45473;-62
2022/09/29 06:07:49;;;;;;;1.20;0.68;;;19.60;46.20;;;;;;4909377;28;45232;-62
2022/09/29 06:10:15;;;;;;;0.85;0.65;;;19.60;46.20;;;;;;4914233;28;45475;-62
2022/09/29 06:12:40;;;;;;;0.93;0.60;;;19.60;46.20;;;;;;4915448;28;46686;-63
2022/09/29 06:15:06;;;;;;;0.85;0.60;;;19.60;46.10;;;;;;4913865;28;45324;-63
2022/09/29 06:17:33;;;;;;;1.10;0.60;;;19.70;46.20;;;;;;4901765;28;45557;-63
2022/09/29 06:19:59;;;;;;;0.40;0.40;;;19.70;46.10;;;;;;4914794;28;45222;-62
2022/09/29 06:22:26;;;;;;;0.80;0.60;;;19.80;46.00;;;;;;4914999;28;46233;-62
2022/09/29 06:24:53;;;;;;;1.52;0.55;;;20.00;45.90;;;;;;4914839;28;45692;-62
2022/09/29 06:27:18;;;;;;;0.65;0.57;;;20.20;45.70;;;;;;4904063;28;45561;-62
2022/09/29 06:29:44;;;;;;;0.85;0.57;;;20.30;45.50;;;;;;4932466;28;45406;-62
2022/09/29 06:32:09;;;;;;;1.17;0.45;;;20.50;45.30;;;;;;4914513;28;45422;-63
2022/09/29 06:37:33;;;;;;;1.02;0.52;;;20.70;45.10;;;;;;4931119;28;45476;-63
2022/09/29 06:37:36;;;;;;;2.50;0.40;;;20.80;45.00;;;;;;4929590;28;45169;-62
2022/09/29 06:40:06;;;;;;;0.93;0.68;;;20.90;44.90;;;;;;4904518;28;45847;-64
2022/09/29 06:42:33;;;;;;;0.70;0.65;;;21.10;44.80;;;;;;4931222;28;47147;-63
2022/09/29 06:44:58;;;;;;;0.90;0.50;;;21.20;44.70;;;;;;4913260;28;44881;-63
2022/09/29 06:47:24;;;;;;;0.60;0.60;;;21.30;44.60;;;;;;4930979;28;45296;-63
2022/09/29 06:49:49;;;;;;;0.55;0.50;;;21.50;44.50;;;;;;4908210;28;45188;-63
2022/09/29 06:52:15;;;;;;;0.63;0.55;;;21.60;44.40;;;;;;4918030;28;46435;-63
2022/09/29 06:54:41;;;;;;;0.77;0.60;;;21.70;44.20;;;;;;4915982;28;45024;-62
2022/09/29 06:57:07;;;;;;;0.38;0.30;;;21.80;44.20;;;;;;4931158;28;44846;-63
2022/09/29 06:59:33;;;;;;;1.55;0.60;;;21.90;44.00;;;;;;4902659;28;45632;-63
2022/09/29 07:01:58;;;;;;;0.70;0.50;;;22.10;43.90;;;;;;4936377;28;45619;-62
2022/09/29 07:04:24;;;;;;;0.90;0.50;;;22.20;43.80;;;;;;4936149;28;45351;-63
2022/09/29 07:06:49;;;;;;;1.10;0.55;;;22.20;43.70;;;;;;4917698;28;45349;-62
2022/09/29 07:09:15;;;;;;;0.57;0.40;;;22.40;43.70;;;;;;4937641;28;45548;-62
2022/09/29 07:11:45;;;;;;;0.80;0.60;;;22.50;43.60;;;;;;4926576;28;45517;-62
2022/09/29 07:14:15;;;;;;;0.45;0.40;;;22.50;43.50;;;;;;4920021;28;45254;-63
2022/09/29 07:16:40;;;;;;;0.40;0.40;;;22.60;43.30;;;;;;4918950;28;45257;-63
2022/09/29 07:19:06;;;;;;;3.17;0.50;;;22.70;43.30;;;;;;4930245;28;45348;-64
2022/09/29 07:21:32;;;;;;;0.65;0.43;;;22.80;43.30;;;;;;4930602;28;45036;-65
2022/09/29 07:23:57;;;;;;;0.80;0.60;;;22.80;43.00;;;;;;4909332;28;45446;-62
2022/09/29 07:26:23;;;;;;;0.32;0.30;;;22.90;42.90;;;;;;4933882;28;45218;-62
2022/09/29 07:28:48;;;;;;;0.88;0.50;;;22.80;42.90;;;;;;4915942;28;45464;-62
2022/09/29 07:31:18;;;;;;;0.45;0.45;;;22.80;43.00;;;;;;4917857;28;45915;-63
2022/09/29 07:33:44;;;;;;;0.98;0.63;;;22.70;42.80;;;;;;4891138;28;45233;-62
2022/09/29 07:36:10;;;;;;;0.60;0.45;;;22.70;42.90;;;;;;4919046;28;45524;-62
2022/09/29 07:38:35;;;;;;;1.30;0.60;;;22.70;43.00;;;;;;4911104;28;45278;-62
2022/09/29 07:41:02;;;;;;;0.40;0.40;;;22.60;43.00;;;;;;4933575;28;47286;-63
2022/09/29 07:43:28;;;;;;;2.83;0.70;;;22.60;43.10;;;;;;4932374;28;44636;-62
2022/09/29 07:45:53;;;;;;;0.90;0.52;;;22.50;43.10;;;;;;4933889;28;45438;-62
2022/09/29 07:48:19;;;;;;;0.75;0.60;;;22.50;43.20;;;;;;4930417;28;45901;-62
2022/09/29 07:50:45;;;;;;;0.63;0.57;;;22.50;43.20;;;;;;4925560;28;45706;-62
2022/09/29 07:53:10;;;;;;;0.85;0.60;;;22.40;43.20;;;;;;4915497;28;45541;-62
2022/09/29 07:55:36;;;;;;;0.50;0.50;;;22.40;43.20;;;;;;4931617;28;45301;-63
2022/09/29 07:58:02;;;;;;;0.70;0.60;;;22.40;43.30;;;;;;4926362;28;45201;-61
2022/09/29 08:00:29;;;;;;;1.58;0.70;;;22.40;43.30;;;;;;4910122;28;45624;-62
2022/09/29 08:03:01;;;;;;;0.77;0.43;;;22.30;43.40;;;;;;4929161;28;45132;-63
2022/09/29 08:05:27;;;;;;;1.33;1.00;;;22.30;43.30;;;;;;4915821;28;45499;-62
2022/09/29 08:07:53;;;;;;;1.02;0.80;;;22.20;43.40;;;;;;4931383;28;45819;-62
2022/09/29 08:10:18;;;;;;;0.85;0.60;;;22.20;43.40;;;;;;4926169;28;45616;-62
2022/09/29 08:12:44;;;;;;;0.70;0.45;;;22.20;43.50;;;;;;4899455;28;45391;-63
2022/09/29 08:15:09;;;;;;;0.60;0.60;;;22.10;43.50;;;;;;4913715;28;44831;-62
2022/09/29 08:17:35;;;;;;;1.33;0.80;;;22.10;43.50;;;;;;4900318;28;44817;-62
2022/09/29 08:20:00;;;;;;;0.73;0.70;;;22.10;43.60;;;;;;4933412;28;45236;-62
2022/09/29 08:22:26;;;;;;;2.13;0.82;;;22.00;43.60;;;;;;4916087;28;46793;-62
2022/09/29 08:24:52;;;;;;;0.80;0.70;;;22.00;43.70;;;;;;4933611;28;45194;-62
2022/09/29 08:27:17;;;;;;;0.93;0.82;;;22.00;43.70;;;;;;4908405;28;44954;-63
2022/09/29 08:29:43;;;;;;;0.50;0.50;;;22.00;43.80;;;;;;4913773;28;47004;-62
2022/09/29 08:32:09;;;;;;;0.60;0.60;;;21.90;43.70;;;;;;4894267;28;45442;-62
2022/09/29 08:34:35;;;;;;;0.93;0.70;;;21.90;43.80;;;;;;4930635;28;45399;-63
2022/09/29 08:37:01;;;;;;;0.77;0.60;;;21.90;43.80;;;;;;4918363;28;44976;-61
2022/09/29 08:39:27;;;;;;;0.80;0.60;;;21.90;43.80;;;;;;4926671;28;47474;-62
2022/09/29 08:42:01;;;;;;;2.60;0.73;;;21.80;43.90;;;;;;4932101;28;45256;-61
2022/09/29 08:44:28;;;;;;;1.52;0.60;;;21.80;43.90;;;;;;4898217;28;45582;-62
2022/09/29 08:46:56;;;;;;;0.88;0.77;;;21.80;44.00;;;;;;4913319;28;45392;-62
2022/09/29 08:49:36;;;;;;;0.50;0.50;;;21.80;44.00;;;;;;4898625;28;47206;-61
2022/09/29 08:52:11;;;;;;;0.50;0.50;;;21.80;44.00;;;;;;4928524;28;45551;-62
2022/09/29 08:54:38;;;;;;;0.90;0.70;;;21.70;44.00;;;;;;4902287;28;45583;-62
2022/09/29 08:57:04;;;;;;;0.60;0.50;;;21.70;44.00;;;;;;4902274;28;45259;-62
2022/09/29 08:59:30;;;;;;;1.50;0.82;;;21.60;44.00;;;;;;4900198;28;45245;-63
2022/09/29 09:02:23;;;;;;;0.80;0.80;;;21.60;44.00;;;;;;4898163;28;45225;-62
2022/09/29 09:05:19;;;;;;;1.13;0.80;;;21.60;44.00;;;;;;4916308;28;45599;-62
2022/09/29 09:08:15;;;;;;;1.00;0.70;;;21.60;44.00;;;;;;4909120;28;45151;-62
2022/09/29 09:10:56;;;;;;;1.02;0.65;;;21.60;44.00;;;;;;4929620;28;46666;-62
2022/09/29 09:13:44;;;;;;;0.93;0.60;;;21.60;44.10;;;;;;4913799;28;45488;-62
2022/09/29 09:16:31;;;;;;;1.13;0.85;;;21.50;44.10;;;;;;4916067;28;45709;-62
2022/09/29 09:19:11;;;;;;;1.40;0.70;;;21.50;44.20;;;;;;4901642;28;45311;-62
2022/09/29 09:21:46;;;;;;;2.22;0.80;;;21.50;44.20;;;;;;4917435;28;46731;-62
2022/09/29 09:24:44;;;;;;;0.80;0.68;;;21.50;44.20;;;;;;4889939;28;45787;-62
2022/09/29 09:27:21;;;;;;;1.52;0.70;;;21.50;44.10;;;;;;4876630;28;45271;-62
2022/09/29 09:29:47;;;;;;;0.43;0.43;;;21.50;44.30;;;;;;4930268;28;44653;-63
2022/09/29 09:32:21;;;;;;;0.73;0.57;;;21.50;44.20;;;;;;4919650;28;45532;-63
2022/09/29 09:34:52;;;;;;;1.63;0.75;;;21.50;44.20;;;;;;4896012;28;46267;-63
2022/09/29 09:37:21;;;;;;;1.35;0.63;;;21.50;44.20;;;;;;4896727;28;46961;-62
2022/09/29 09:40:08;;;;;;;0.65;0.60;;;21.50;44.20;;;;;;4912647;28;45502;-63
2022/09/29 09:42:36;;;;;;;0.40;0.40;;;21.50;44.20;;;;;;4908058;28;46665;-63
2022/09/29 09:45:07;;;;;;;0.70;0.65;;;21.50;44.30;;;;;;4924728;28;45451;-63
2022/09/29 09:47:41;;;;;;;1.02;0.70;;;21.50;44.20;;;;;;4898575;28;45504;-62
2022/09/29 09:50:15;;;;;;;0.68;0.57;;;21.50;44.20;;;;;;4895916;28;44891;-62
2022/09/29 09:53:02;;;;;;;0.45;0.45;;;21.50;44.40;;;;;;4911437;28;46026;-62
2022/09/29 09:55:33;;;;;;;0.63;0.50;;;21.50;44.30;;;;;;4897452;28;45522;-63
2022/09/29 09:58:30;;;;;;;1.63;0.70;;;21.50;44.40;;;;;;4912705;28;45484;-63
2022/09/29 10:00:56;;;;;;;1.25;0.70;;;21.50;44.30;;;;;;4920069;28;45391;-62
2022/09/29 10:03:22;;;;;;;2.63;0.70;;;21.50;44.30;;;;;;4917040;28;45210;-61
2022/09/29 10:05:47;;;;;;;0.85;0.68;;;21.50;44.30;;;;;;4910069;28;45580;-62
2022/09/29 10:08:25;;;;;;;0.77;0.50;;;21.50;44.40;;;;;;4899717;28;45244;-62
2022/09/29 10:10:51;;;;;;;0.40;0.35;;;21.50;44.40;;;;;;4931888;28;44982;-62
2022/09/29 10:13:17;;;;;;;0.40;0.40;;;21.40;44.40;;;;;;4916333;28;45448;-62
2022/09/29 10:15:52;;;;;;;1.75;0.50;;;21.40;44.50;;;;;;4916788;28;45331;-62
2022/09/29 10:18:30;;;;;;;0.93;0.65;;;21.40;44.50;;;;;;4917550;28;45501;-62
2022/09/29 10:20:55;;;;;;;0.73;0.60;;;21.40;44.60;;;;;;4914146;28;45597;-62
2022/09/29 10:23:39;;;;;;;0.73;0.70;;;21.40;44.60;;;;;;4932316;28;45206;-61
2022/09/29 10:26:24;;;;;;;0.85;0.60;;;21.40;44.60;;;;;;4901086;28;45550;-62
2022/09/29 10:28:54;;;;;;;0.60;0.60;;;21.30;44.70;;;;;;4914129;28;44798;-62
2022/09/29 10:31:24;;;;;;;0.60;0.60;;;21.30;44.70;;;;;;4931183;28;45184;-63
2022/09/29 10:33:54;;;;;;;3.08;0.65;;;21.30;44.70;;;;;;4909522;28;46609;-62
2022/09/29 10:36:20;;;;;;;0.75;0.57;;;21.30;44.90;;;;;;4905603;28;44991;-63
2022/09/29 10:38:47;;;;;;;1.42;0.75;;;21.30;44.70;;;;;;4896297;28;45636;-62
2022/09/29 10:41:13;;;;;;;0.70;0.70;;;21.40;44.70;;;;;;4893854;28;44783;-63
2022/09/29 10:43:40;;;;;;;0.70;0.60;;;21.50;44.60;;;;;;4923324;28;45564;-62
2022/09/29 10:46:26;;;;;;;0.95;0.57;;;21.60;44.40;;;;;;4910799;28;45231;-63
2022/09/29 10:49:08;;;;;;;1.33;0.70;;;21.80;44.20;;;;;;4927386;28;45049;-63
2022/09/29 10:51:33;;;;;;;1.27;0.60;;;22.00;43.90;;;;;;4930636;28;44682;-63
2022/09/29 10:54:08;;;;;;;1.85;0.68;;;22.10;43.80;;;;;;4904527;28;46056;-64
2022/09/29 10:56:34;;;;;;;0.73;0.50;;;22.20;44.30;;;;;;4909629;28;44681;-63
2022/09/29 10:59:01;;;;;;;1.13;0.55;;;22.30;43.60;;;;;;4900833;28;45010;-63
2022/09/29 11:01:27;;;;;;;0.40;0.40;;;22.50;43.50;;;;;;4915765;28;45414;-62
2022/09/29 11:04:00;;;;;;;0.50;0.50;;;22.60;43.50;;;;;;4896744;28;46983;-63
2022/09/29 11:06:35;;;;;;;1.05;0.60;;;22.70;43.30;;;;;;4899925;28;45150;-63
2022/09/29 11:09:02;;;;;;;1.10;0.50;;;22.80;43.20;;;;;;4917119;28;45070;-62
2022/09/29 11:11:31;;;;;;;1.88;0.60;;;22.90;43.10;;;;;;4928145;28;44792;-63
2022/09/29 11:13:58;;;;;;;0.55;0.50;;;23.00;43.00;;;;;;4908735;28;47674;-63
2022/09/29 11:16:23;;;;;;;0.60;0.60;;;23.10;42.90;;;;;;4918103;28;46366;-64
2022/09/29 11:18:51;;;;;;;1.50;0.65;;;23.20;42.90;;;;;;4933518;28;44723;-63
2022/09/29 11:21:34;;;;;;;1.42;0.60;;;23.30;42.90;;;;;;4908591;28;45448;-63
2022/09/29 11:24:18;;;;;;;3.05;0.63;;;23.40;43.30;;;;;;4910644;28;45411;-63
2022/09/29 11:26:53;;;;;;;0.45;0.45;;;23.50;42.60;;;;;;4902687;28;44814;-62
2022/09/29 11:29:27;;;;;;;0.75;0.45;;;23.60;42.70;;;;;;4916121;28;45746;-63
2022/09/29 11:32:09;;;;;;;0.70;0.50;;;23.70;42.60;;;;;;4910031;28;45238;-63
2022/09/29 11:35:04;;;;;;;1.23;0.60;;;23.80;42.40;;;;;;4929535;28;45537;-62
2022/09/29 11:37:49;;;;;;;0.98;0.60;;;23.80;42.40;;;;;;4926156;28;45421;-63
2022/09/29 11:40:21;;;;;;;0.52;0.40;;;23.90;42.40;;;;;;4938546;28;45579;-64
2022/09/29 11:43:00;;;;;;;0.50;0.50;;;24.00;42.30;;;;;;4920650;28;45115;-62
2022/09/29 11:45:59;;;;;;;0.73;0.55;;;24.10;42.20;;;;;;4918303;28;45754;-64
2022/09/29 11:48:32;;;;;;;0.63;0.40;;;24.10;41.80;;;;;;4898467;28;45291;-63
2022/09/29 11:51:08;;;;;;;0.52;0.50;;;24.20;41.90;;;;;;4933983;28;45385;-63
2022/09/29 11:54:12;;;;;;;0.50;0.40;;;24.30;41.90;;;;;;4902567;28;45555;-64
2022/09/29 11:56:50;;;;;;;0.55;0.40;;;24.30;41.60;;;;;;4886745;28;46295;-64
2022/09/29 11:59:38;;;;;;;0.47;0.40;;;24.40;41.80;;;;;;4906617;28;45338;-62
2022/09/29 12:02:37;;;;;;;0.85;0.50;;;24.40;41.60;;;;;;4918498;28;44664;-63
2022/09/29 12:05:25;;;;;;;1.67;0.68;;;24.40;41.50;;;;;;4931554;28;44764;-63
2022/09/29 12:08:23;;;;;;;0.70;0.57;;;24.50;41.40;;;;;;4917600;28;46173;-64
2022/09/29 12:11:10;;;;;;;0.40;0.40;;;24.50;41.50;;;;;;4915729;28;44810;-63
2022/09/29 12:13:42;;;;;;;0.38;0.30;;;24.60;41.40;;;;;;4913678;28;45335;-65
2022/09/29 12:16:11;;;;;;;0.73;0.40;;;24.60;41.60;;;;;;4916548;28;46237;-64
2022/09/29 12:18:56;;;;;;;0.75;0.60;;;24.70;41.60;;;;;;4907993;28;45397;-65
2022/09/29 12:21:36;;;;;;;1.60;0.55;;;24.70;41.40;;;;;;4930921;28;45325;-63
2022/09/29 12:24:03;;;;;;;0.98;0.43;;;24.70;41.30;;;;;;4907670;28;45168;-64
2022/09/29 12:26:29;;;;;;;0.82;0.63;;;24.80;41.60;;;;;;4909304;28;45450;-66
2022/09/29 12:28:57;;;;;;;0.52;0.50;;;24.80;41.50;;;;;;4896857;28;45300;-64
2022/09/29 12:31:23;;;;;;;1.20;0.60;;;24.80;41.40;;;;;;4919900;28;44827;-60
2022/09/29 12:33:56;;;;;;;2.15;0.55;;;24.90;41.40;;;;;;4898022;28;45479;-63
2022/09/29 12:36:52;;;;;;;0.70;0.50;;;24.90;41.30;;;;;;4917022;28;45492;-65
2022/09/29 12:39:55;;;;;;;0.60;0.50;;;25.00;40.90;;;;;;4911992;28;46225;-64
2022/09/29 12:42:42;;;;;;;1.30;0.30;;;25.10;40.90;;;;;;4918565;28;45155;-64
2022/09/29 12:45:26;;;;;;;3.08;0.50;;;25.20;40.80;;;;;;4919147;28;44824;-64
2022/09/29 12:48:29;;;;;;;1.02;0.60;;;25.20;40.90;;;;;;4914564;28;45273;-65
2022/09/29 12:51:24;;;;;;;1.38;0.60;;;25.20;40.70;;;;;;4936934;28;45185;-64
2022/09/29 12:54:07;;;;;;;0.95;0.50;;;25.20;40.60;;;;;;4928507;28;45342;-62
2022/09/29 12:56:38;;;;;;;1.77;0.60;;;25.20;40.80;;;;;;4935352;28;45106;-64
2022/09/29 12:59:24;;;;;;;2.53;0.45;;;25.10;41.00;;;;;;4901084;28;45341;-64
2022/09/29 13:01:53;;;;;;;1.13;0.47;;;25.00;41.10;;;;;;4904465;28;46294;-65
2022/09/29 13:04:24;;;;;;;4.22;0.68;;;24.90;41.20;;;;;;4910802;28;45254;-65
2022/09/29 13:07:05;;;;;;;0.50;0.45;;;24.90;41.30;;;;;;4915613;28;45409;-63
2022/09/29 13:09:47;;;;;;;0.60;0.60;;;24.90;41.20;;;;;;4931633;28;44991;-64
2022/09/29 13:12:35;;;;;;;1.75;0.57;;;24.80;41.30;;;;;;4920118;28;45580;-65
2022/09/29 13:15:26;;;;;;;5.28;0.57;;;24.80;41.50;;;;;;4933492;28;44755;-63
2022/09/29 13:18:16;;;;;;;0.95;0.50;;;24.80;41.40;;;;;;4914280;28;45176;-65
2022/09/29 13:21:01;;;;;;;0.75;0.43;;;24.70;41.40;;;;;;4933616;28;45390;-65
2022/09/29 13:23:34;;;;;;;0.50;0.50;;;24.70;41.70;;;;;;4888614;28;47472;-65
2022/09/29 13:26:19;;;;;;;1.42;0.65;;;24.60;41.70;;;;;;4915942;28;44877;-64
2022/09/29 13:28:50;;;;;;;1.70;0.75;;;24.60;41.80;;;;;;4934782;28;44739;-60
2022/09/29 13:31:18;;;;;;;1.27;0.75;;;24.50;41.70;;;;;;4905502;28;45554;-61
2022/09/29 13:33:48;;;;;;;1.40;0.70;;;24.40;41.80;;;;;;4903347;28;45223;-60
2022/09/29 13:36:35;;;;;;;3.33;0.70;;;24.40;41.90;;;;;;4900257;28;46268;-61
2022/09/29 13:39:01;;;;;;;1.95;0.50;;;24.40;41.80;;;;;;4922202;28;45373;-61
2022/09/29 13:41:30;;;;;;;1.02;0.65;;;24.30;42.00;;;;;;4905109;28;45320;-61
2022/09/29 13:44:00;;;;;;;0.93;0.65;;;24.30;42.10;;;;;;4938386;28;45368;-60
2022/09/29 13:46:37;;;;;;;1.30;0.60;;;24.20;42.10;;;;;;4936168;28;45249;-61
2022/09/29 13:49:11;;;;;;;0.70;0.50;;;24.20;42.10;;;;;;4919179;28;45437;-61
2022/09/29 13:51:51;;;;;;;1.50;0.50;;;24.10;42.20;;;;;;4895917;28;45939;-61
2022/09/29 13:54:35;;;;;;;0.90;0.55;;;24.10;42.20;;;;;;4930941;28;46465;-61
2022/09/29 13:57:23;;;;;;;2.78;0.50;;;24.10;42.30;;;;;;4909458;28;44926;-61
2022/09/29 13:59:55;;;;;;;1.60;0.63;;;24.10;42.40;;;;;;4932072;28;45391;-61
2022/09/29 14:02:29;;;;;;;1.30;0.52;;;24.00;42.40;;;;;;4932353;28;45392;-62
2022/09/29 14:04:55;;;;;;;0.77;0.70;;;24.00;42.40;;;;;;4914360;28;45415;-61
2022/09/29 14:07:40;;;;;;;1.02;0.63;;;24.00;42.50;;;;;;4932902;28;45230;-62
2022/09/29 14:10:36;;;;;;;1.25;0.50;;;23.90;42.50;;;;;;4903327;28;44924;-62
2022/09/29 14:13:16;;;;;;;2.35;0.70;;;23.90;42.50;;;;;;4896302;28;45244;-60
2022/09/29 14:15:45;;;;;;;1.20;0.40;;;23.80;42.50;;;;;;4931677;28;46377;-62
2022/09/29 14:18:42;;;;;;;1.50;0.80;;;23.80;42.60;;;;;;4908490;28;45198;-60
2022/09/29 14:21:10;;;;;;;0.98;0.40;;;23.80;42.60;;;;;;4911716;28;44688;-62
2022/09/29 14:23:44;;;;;;;2.17;0.52;;;23.70;42.70;;;;;;4907165;28;45401;-61
2022/09/29 14:26:49;;;;;;;1.42;0.50;;;23.70;42.70;;;;;;4934990;28;45628;-60
2022/09/29 14:29:25;;;;;;;0.98;0.63;;;23.70;42.80;;;;;;4926414;28;45254;-62
2022/09/29 14:31:52;;;;;;;1.65;0.55;;;23.60;42.70;;;;;;4921811;28;45405;-61
2022/09/29 14:34:19;;;;;;;0.95;0.70;;;23.60;42.80;;;;;;4894153;28;45435;-60
2022/09/29 14:36:46;;;;;;;2.78;0.75;;;23.60;42.80;;;;;;4899979;28;45450;-61
2022/09/29 14:39:13;;;;;;;1.05;0.70;;;23.60;42.90;;;;;;4902647;28;45200;-61
2022/09/29 14:41:46;;;;;;;0.65;0.55;;;23.50;42.90;;;;;;4910098;28;44937;-60
2022/09/29 14:54:15;;;;;;;1.20;0.60;;;23.40;43.10;;;;;;4908124;28;45444;-60
2022/09/29 14:57:06;;;;;;;0.95;0.65;;;23.40;43.10;;;;;;4912284;28;45282;-61
2022/09/29 14:59:48;;;;;;;1.23;0.68;;;23.30;43.20;;;;;;4931922;28;45481;-61
2022/09/29 15:02:25;;;;;;;1.10;0.70;;;23.30;43.20;;;;;;4917075;28;45429;-60
2022/09/29 15:04:51;;;;;;;3.20;0.65;;;23.30;43.30;;;;;;4903116;28;44676;-61
2022/09/29 15:07:22;;;;;;;0.82;0.60;;;23.30;43.30;;;;;;4932916;28;45164;-60
2022/09/29 15:09:52;;;;;;;0.95;0.65;;;23.30;43.40;;;;;;4930370;28;45453;-60
2022/09/29 15:12:21;;;;;;;0.47;0.43;;;23.20;43.40;;;;;;4933432;28;45521;-62
2022/09/29 15:14:48;;;;;;;0.57;0.47;;;23.20;43.40;;;;;;4905145;28;45228;-61
2022/09/29 15:17:32;;;;;;;0.65;0.50;;;23.10;43.40;;;;;;4888666;28;46342;-61
2022/09/29 15:20:22;;;;;;;1.65;0.57;;;23.10;43.50;;;;;;4935199;28;45466;-62
2022/09/29 15:23:05;;;;;;;0.73;0.52;;;23.10;43.70;;;;;;4911830;28;46674;-61
2022/09/29 15:25:34;;;;;;;;;;;23.00;43.70;;;;;;4913869;28;46047;-62
2022/09/29 15:28:13;;;;;;;0.82;0.60;;;23.00;43.90;;;;;;4915023;28;45692;-60
2022/09/29 15:30:38;;;;;;;0.50;0.50;;;22.90;43.80;;;;;;4917552;28;45536;-62
2022/09/29 15:33:07;;;;;;;1.30;0.60;;;22.90;43.80;;;;;;4918590;28;45520;-62
2022/09/29 15:35:33;;;;;;;1.33;0.70;;;22.90;43.90;;;;;;4932777;28;44825;-62
2022/09/29 15:38:16;;;;;;;1.17;0.60;;;22.80;43.80;;;;;;4915270;28;45503;-61
2022/09/29 15:40:41;;;;;;;0.82;0.60;;;22.80;44.00;;;;;;4902459;28;46611;-62
2022/09/29 15:43:21;;;;;;;1.08;0.75;;;22.70;44.00;;;;;;4936010;28;45266;-62
2022/09/29 15:46:01;;;;;;;1.00;0.70;;;22.80;44.10;;;;;;4931912;28;45502;-61
2022/09/29 15:48:27;;;;;;;0.95;0.68;;;22.70;44.10;;;;;;4899405;28;45561;-62
2022/09/29 15:50:54;;;;;;;1.65;0.70;;;22.70;44.10;;;;;;4916360;28;44993;-63
2022/09/29 15:53:21;;;;;;;2.50;0.82;;;22.70;44.20;;;;;;4897786;28;45127;-62
2022/09/29 15:55:47;;;;;;;1.45;0.75;;;22.60;44.20;;;;;;4896132;28;45496;-62
2022/09/29 15:58:25;;;;;;;2.22;0.80;;;22.50;44.10;;;;;;4930102;28;45521;-60
2022/09/29 16:01:07;;;;;;;0.65;0.55;;;22.50;44.20;;;;;;4929205;28;45416;-60
2022/09/29 16:03:43;;;;;;;2.38;0.63;;;22.60;44.30;;;;;;4914365;28;45652;-62
2022/09/29 16:06:34;;;;;;;1.27;0.63;;;22.50;44.40;;;;;;4894586;28;45442;-61
2022/09/29 16:09:04;;;;;;;1.13;0.47;;;22.50;44.30;;;;;;4912500;28;45352;-62
2022/09/29 16:11:34;;;;;;;1.02;0.50;;;22.40;44.30;;;;;;4909222;28;45944;-60
2022/09/29 16:14:18;;;;;;;1.00;0.50;;;22.40;44.40;;;;;;4898443;28;45345;-63
2022/09/29 16:16:46;;;;;;;0.85;0.60;;;22.40;44.50;;;;;;4923114;28;45688;-60
2022/09/29 16:19:18;;;;;;;1.13;0.50;;;22.40;44.50;;;;;;4911202;28;45330;-62
2022/09/29 16:21:44;;;;;;;1.02;0.63;;;22.40;44.60;;;;;;4926522;28;45663;-62